sensor_id;sensor_type;location;lat;lon;timestamp;pressure;altitude;pressure_sealevel;temperature;humidity
30636;BME280;17400;52.392;9.750;2024-03-25T00:00:32;99585.28;;;6.38;100.00
30636;BME280;17400;52.392;9.750;2024-03-25T00:03:00;99596.88;;;6.45;100.00
30636;BME280;17400;52.392;9.750;2024-03-25T00:05:26;99599.81;;;6.50;100.00
30636;BME280;17400;52.392;9.750;2024-03-25T00:07:53;99597.53;;;6.47;100.00
30636;BME280;17400;52.392;9.750;2024-03-25T00:10:21;99601.00;;;6.41;100.00
30636;BME280;17400;52.392;9.750;2024-03-25T00:12:48;99602.81;;;6.34;100.00
30636;BME280;17400;52.392;9.750;2024-03-25T00:15:18;99596.81;;;6.32;100.00
30636;BME280;17400;52.392;9.750;2024-03-25T00:17:46;99600.09;;;6.27;100.00
30636;BME280;17400;52.392;9.750;2024-03-25T00:20:12;99600.50;;;6.31;100.00
30636;BME280;17400;52.392;9.750;2024-03-25T00:22:41;99611.09;;;6.32;100.00
30636;BME280;17400;52.392;9.750;2024-03-25T00:25:08;99608.56;;;6.31;100.00
30636;BME280;17400;52.392;9.750;2024-03-25T00:27:36;99612.69;;;6.27;100.00
30636;BME280;17400;52.392;9.750;2024-03-25T00:30:04;99619.97;;;6.33;100.00
30636;BME280;17400;52.392;9.750;2024-03-25T00:32:33;99617.50;;;6.31;100.00
30636;BME280;17400;52.392;9.750;2024-03-25T00:34:59;99625.72;;;6.23;100.00
30636;BME280;17400;52.392;9.750;2024-03-25T00:37:26;99628.44;;;6.30;100.00
30636;BME280;17400;52.392;9.750;2024-03-25T00:39:52;99629.31;;;6.37;100.00
30636;BME280;17400;52.392;9.750;2024-03-25T00:42:19;99631.16;;;6.37;100.00
30636;BME280;17400;52.392;9.750;2024-03-25T00:44:46;99628.69;;;6.35;100.00
30636;BME280;17400;52.392;9.750;2024-03-25T00:47:13;99624.75;;;6.38;100.00
30636;BME280;17400;52.392;9.750;2024-03-25T00:49:42;99633.06;;;6.43;100.00
30636;BME280;17400;52.392;9.750;2024-03-25T00:52:09;99642.75;;;6.37;100.00
30636;BME280;17400;52.392;9.750;2024-03-25T00:54:35;99638.78;;;6.33;100.00
30636;BME280;17400;52.392;9.750;2024-03-25T00:57:02;99643.75;;;6.36;100.00
30636;BME280;17400;52.392;9.750;2024-03-25T00:59:28;99642.94;;;6.36;100.00
30636;BME280;17400;52.392;9.750;2024-03-25T01:01:56;99642.94;;;6.36;100.00
30636;BME280;17400;52.392;9.750;2024-03-25T01:04:23;99639.59;;;6.33;100.00
30636;BME280;17400;52.392;9.750;2024-03-25T01:06:50;99656.34;;;6.29;100.00
30636;BME280;17400;52.392;9.750;2024-03-25T01:09:16;99649.09;;;6.29;100.00
30636;BME280;17400;52.392;9.750;2024-03-25T01:11:44;99644.38;;;6.31;100.00
30636;BME280;17400;52.392;9.750;2024-03-25T01:14:11;99660.75;;;6.37;100.00
30636;BME280;17400;52.392;9.750;2024-03-25T01:16:38;99649.53;;;6.33;100.00
30636;BME280;17400;52.392;9.750;2024-03-25T01:19:05;99652.69;;;6.37;100.00
30636;BME280;17400;52.392;9.750;2024-03-25T01:21:32;99665.06;;;6.38;100.00
30636;BME280;17400;52.392;9.750;2024-03-25T01:24:00;99666.38;;;6.42;100.00
30636;BME280;17400;52.392;9.750;2024-03-25T01:26:26;99666.69;;;6.32;100.00
30636;BME280;17400;52.392;9.750;2024-03-25T01:28:54;99668.34;;;6.33;100.00
30636;BME280;17400;52.392;9.750;2024-03-25T01:31:20;99659.91;;;6.36;100.00
30636;BME280;17400;52.392;9.750;2024-03-25T01:33:47;99669.88;;;6.42;100.00
30636;BME280;17400;52.392;9.750;2024-03-25T01:36:15;99662.81;;;6.41;100.00
30636;BME280;17400;52.392;9.750;2024-03-25T01:38:43;99659.94;;;6.43;100.00
30636;BME280;17400;52.392;9.750;2024-03-25T01:41:10;99659.94;;;6.43;100.00
30636;BME280;17400;52.392;9.750;2024-03-25T01:43:38;99669.22;;;6.40;100.00
30636;BME280;17400;52.392;9.750;2024-03-25T01:46:04;99668.81;;;6.37;100.00
30636;BME280;17400;52.392;9.750;2024-03-25T01:48:32;99673.13;;;6.38;100.00
30636;BME280;17400;52.392;9.750;2024-03-25T01:50:59;99666.94;;;6.37;100.00
30636;BME280;17400;52.392;9.750;2024-03-25T01:53:29;99666.69;;;6.32;100.00
30636;BME280;17400;52.392;9.750;2024-03-25T01:55:56;99666.94;;;6.37;100.00
30636;BME280;17400;52.392;9.750;2024-03-25T01:58:25;99676.66;;;6.38;100.00
30636;BME280;17400;52.392;9.750;2024-03-25T02:00:52;99676.66;;;6.38;100.00
30636;BME280;17400;52.392;9.750;2024-03-25T02:03:20;99674.59;;;6.40;100.00
30636;BME280;17400;52.392;9.750;2024-03-25T02:05:47;99680.78;;;6.34;100.00
30636;BME280;17400;52.392;9.750;2024-03-25T02:08:14;99679.31;;;6.31;100.00
30636;BME280;17400;52.392;9.750;2024-03-25T02:10:42;99672.25;;;6.30;100.00
30636;BME280;17400;52.392;9.750;2024-03-25T02:13:10;99682.03;;;6.38;100.00
30636;BME280;17400;52.392;9.750;2024-03-25T02:15:36;99681.19;;;6.38;100.00
30636;BME280;17400;52.392;9.750;2024-03-25T02:18:03;99682.09;;;6.45;100.00
30636;BME280;17400;52.392;9.750;2024-03-25T02:20:29;99693.03;;;6.43;100.00
30636;BME280;17400;52.392;9.750;2024-03-25T02:22:57;99681.19;;;6.38;100.00
30636;BME280;17400;52.392;9.750;2024-03-25T02:25:23;99695.63;;;6.30;100.00
30636;BME280;17400;52.392;9.750;2024-03-25T02:27:52;99683.66;;;6.32;100.00
30636;BME280;17400;52.392;9.750;2024-03-25T02:30:18;99688.25;;;6.39;100.00
30636;BME280;17400;52.392;9.750;2024-03-25T02:32:45;99704.00;;;6.42;100.00
30636;BME280;17400;52.392;9.750;2024-03-25T02:35:14;99703.09;;;6.34;100.00
30636;BME280;17400;52.392;9.750;2024-03-25T02:37:42;99707.16;;;6.24;100.00
30636;BME280;17400;52.392;9.750;2024-03-25T02:40:09;99715.00;;;6.25;100.00
30636;BME280;17400;52.392;9.750;2024-03-25T02:42:38;99722.56;;;6.15;100.00
30636;BME280;17400;52.392;9.750;2024-03-25T02:45:08;99722.41;;;6.16;100.00
30636;BME280;17400;52.392;9.750;2024-03-25T02:47:36;99729.06;;;6.21;100.00
30636;BME280;17400;52.392;9.750;2024-03-25T02:50:02;99733.63;;;6.27;100.00
30636;BME280;17400;52.392;9.750;2024-03-25T02:52:29;99743.16;;;6.29;100.00
30636;BME280;17400;52.392;9.750;2024-03-25T02:54:55;99738.63;;;6.30;100.00
30636;BME280;17400;52.392;9.750;2024-03-25T02:57:22;99737.22;;;6.34;100.00
30636;BME280;17400;52.392;9.750;2024-03-25T02:59:48;99741.06;;;6.25;100.00
30636;BME280;17400;52.392;9.750;2024-03-25T03:02:17;99742.75;;;6.26;100.00
30636;BME280;17400;52.392;9.750;2024-03-25T03:04:43;99745.22;;;6.27;100.00
30636;BME280;17400;52.392;9.750;2024-03-25T03:07:10;99751.44;;;6.28;100.00
30636;BME280;17400;52.392;9.750;2024-03-25T03:09:36;99751.63;;;6.26;100.00
30636;BME280;17400;52.392;9.750;2024-03-25T03:12:04;99755.13;;;6.27;100.00
30636;BME280;17400;52.392;9.750;2024-03-25T03:14:30;99755.53;;;6.24;100.00
30636;BME280;17400;52.392;9.750;2024-03-25T03:16:57;99755.94;;;6.21;100.00
30636;BME280;17400;52.392;9.750;2024-03-25T03:19:25;99751.97;;;6.16;100.00
30636;BME280;17400;52.392;9.750;2024-03-25T03:21:52;99763.72;;;6.15;100.00
30636;BME280;17400;52.392;9.750;2024-03-25T03:24:18;99761.31;;;6.21;100.00
30636;BME280;17400;52.392;9.750;2024-03-25T03:26:45;99759.03;;;6.24;100.00
30636;BME280;17400;52.392;9.750;2024-03-25T03:29:11;99766.28;;;6.24;100.00
30636;BME280;17400;52.392;9.750;2024-03-25T03:31:38;99764.16;;;6.19;100.00
30636;BME280;17400;52.392;9.750;2024-03-25T03:34:04;99770.78;;;6.16;100.00
30636;BME280;17400;52.392;9.750;2024-03-25T03:36:33;99775.75;;;6.20;100.00
30636;BME280;17400;52.392;9.750;2024-03-25T03:38:59;99782.00;;;6.27;100.00
30636;BME280;17400;52.392;9.750;2024-03-25T03:41:26;99778.97;;;6.30;100.00
30636;BME280;17400;52.392;9.750;2024-03-25T03:43:52;99784.91;;;6.25;100.00
30636;BME280;17400;52.392;9.750;2024-03-25T03:46:19;99784.50;;;6.28;100.00
30636;BME280;17400;52.392;9.750;2024-03-25T03:48:45;99782.00;;;6.27;100.00
30636;BME280;17400;52.392;9.750;2024-03-25T03:51:12;99778.97;;;6.30;100.00
30636;BME280;17400;52.392;9.750;2024-03-25T03:53:40;99795.72;;;6.32;100.00
30636;BME280;17400;52.392;9.750;2024-03-25T03:56:07;99791.75;;;6.28;100.00
30636;BME280;17400;52.392;9.750;2024-03-25T03:58:33;99795.25;;;6.28;100.00
30636;BME280;17400;52.392;9.750;2024-03-25T04:01:00;99792.50;;;6.22;100.00
30636;BME280;17400;52.392;9.750;2024-03-25T04:03:26;99799.34;;;6.24;100.00
30636;BME280;17400;52.392;9.750;2024-03-25T04:05:53;99807.69;;;6.29;100.00
30636;BME280;17400;52.392;9.750;2024-03-25T04:08:19;99802.69;;;6.26;100.00
30636;BME280;17400;52.392;9.750;2024-03-25T04:10:48;99796.50;;;6.26;100.00
30636;BME280;17400;52.392;9.750;2024-03-25T04:13:14;99793.72;;;6.19;100.00
30636;BME280;17400;52.392;9.750;2024-03-25T04:15:42;99795.72;;;6.10;100.00
30636;BME280;17400;52.392;9.750;2024-03-25T04:18:09;99794.03;;;6.09;100.00
30636;BME280;17400;52.392;9.750;2024-03-25T04:20:38;99793.84;;;6.11;100.00
30636;BME280;17400;52.392;9.750;2024-03-25T04:23:06;99796.72;;;6.09;100.00
30636;BME280;17400;52.392;9.750;2024-03-25T04:25:33;99798.41;;;6.10;100.00
30636;BME280;17400;52.392;9.750;2024-03-25T04:28:01;99806.06;;;6.13;100.00
30636;BME280;17400;52.392;9.750;2024-03-25T04:30:27;99807.09;;;5.97;100.00
30636;BME280;17400;52.392;9.750;2024-03-25T04:32:54;99814.44;;;6.04;100.00
30636;BME280;17400;52.392;9.750;2024-03-25T04:35:20;99812.59;;;6.04;100.00
30636;BME280;17400;52.392;9.750;2024-03-25T04:37:47;99808.41;;;6.02;100.00
30636;BME280;17400;52.392;9.750;2024-03-25T04:40:13;99816.19;;;6.11;100.00
30636;BME280;17400;52.392;9.750;2024-03-25T04:42:40;99817.84;;;6.12;100.00
30636;BME280;17400;52.392;9.750;2024-03-25T04:45:08;99825.66;;;6.07;100.00
30636;BME280;17400;52.392;9.750;2024-03-25T04:47:35;99829.16;;;6.08;100.00
30636;BME280;17400;52.392;9.750;2024-03-25T04:50:01;99834.63;;;6.14;100.00
30636;BME280;17400;52.392;9.750;2024-03-25T04:52:27;99838.19;;;6.22;100.00
30636;BME280;17400;52.392;9.750;2024-03-25T04:54:53;99835.34;;;6.23;100.00
30636;BME280;17400;52.392;9.750;2024-03-25T04:57:20;99844.88;;;6.26;100.00
30636;BME280;17400;52.392;9.750;2024-03-25T04:59:46;99844.63;;;6.21;100.00
30636;BME280;17400;52.392;9.750;2024-03-25T05:02:14;99844.88;;;6.26;100.00
30636;BME280;17400;52.392;9.750;2024-03-25T05:04:40;99850.63;;;6.23;100.00
30636;BME280;17400;52.392;9.750;2024-03-25T05:07:07;99843.97;;;6.19;100.00
30636;BME280;17400;52.392;9.750;2024-03-25T05:09:33;99845.16;;;6.16;100.00
30636;BME280;17400;52.392;9.750;2024-03-25T05:11:59;99847.84;;;6.16;100.00
30636;BME280;17400;52.392;9.750;2024-03-25T05:14:26;99852.47;;;6.22;100.00
30636;BME280;17400;52.392;9.750;2024-03-25T05:16:52;99845.50;;;6.28;100.00
30636;BME280;17400;52.392;9.750;2024-03-25T05:19:19;99844.75;;;6.34;100.00
30636;BME280;17400;52.392;9.750;2024-03-25T05:21:46;99845.38;;;6.36;100.00
30636;BME280;17400;52.392;9.750;2024-03-25T05:24:12;99856.59;;;6.40;100.00
30636;BME280;17400;52.392;9.750;2024-03-25T05:26:39;99854.03;;;6.31;100.00
30636;BME280;17400;52.392;9.750;2024-03-25T05:29:07;99853.19;;;6.31;100.00
30636;BME280;17400;52.392;9.750;2024-03-25T05:31:33;99865.34;;;6.27;100.00
30636;BME280;17400;52.392;9.750;2024-03-25T05:33:59;99869.06;;;6.26;100.00
30636;BME280;17400;52.392;9.750;2024-03-25T05:36:28;99877.13;;;6.26;100.00
30636;BME280;17400;52.392;9.750;2024-03-25T05:38:54;99875.06;;;6.28;100.00
30636;BME280;17400;52.392;9.750;2024-03-25T05:41:20;99880.44;;;6.28;100.00
30636;BME280;17400;52.392;9.750;2024-03-25T05:43:46;99882.59;;;6.32;100.00
30636;BME280;17400;52.392;9.750;2024-03-25T05:46:12;99887.19;;;6.39;100.00
30636;BME280;17400;52.392;9.750;2024-03-25T05:48:38;99889.13;;;6.45;100.00
30636;BME280;17400;52.392;9.750;2024-03-25T05:51:05;99888.53;;;6.49;100.00
30636;BME280;17400;52.392;9.750;2024-03-25T05:53:34;99885.84;;;6.49;100.00
30636;BME280;17400;52.392;9.750;2024-03-25T05:56:00;99886.50;;;6.52;100.00
30636;BME280;17400;52.392;9.750;2024-03-25T05:58:27;99888.78;;;6.55;100.00
30636;BME280;17400;52.392;9.750;2024-03-25T06:00:54;99883.06;;;6.58;100.00
30636;BME280;17400;52.392;9.750;2024-03-25T06:03:20;99886.09;;;6.55;100.00
30636;BME280;17400;52.392;9.750;2024-03-25T06:05:47;99899.00;;;6.59;100.00
30636;BME280;17400;52.392;9.750;2024-03-25T06:08:13;99891.13;;;6.58;100.00
30636;BME280;17400;52.392;9.750;2024-03-25T06:10:44;99894.56;;;6.52;100.00
30636;BME280;17400;52.392;9.750;2024-03-25T06:13:10;99897.50;;;6.57;100.00
30636;BME280;17400;52.392;9.750;2024-03-25T06:15:37;99908.06;;;6.58;100.00
30636;BME280;17400;52.392;9.750;2024-03-25T06:18:03;99905.78;;;6.55;100.00
30636;BME280;17400;52.392;9.750;2024-03-25T06:20:30;99913.25;;;6.60;100.00
30636;BME280;17400;52.392;9.750;2024-03-25T06:22:56;99911.78;;;6.57;100.00
30636;BME280;17400;52.392;9.750;2024-03-25T06:25:22;99911.03;;;6.63;100.00
30636;BME280;17400;52.392;9.750;2024-03-25T06:27:49;99913.53;;;6.65;100.00
30636;BME280;17400;52.392;9.750;2024-03-25T06:30:16;99908.91;;;6.59;100.00
30636;BME280;17400;52.392;9.750;2024-03-25T06:33:00;99925.94;;;6.66;100.00
30636;BME280;17400;52.392;9.750;2024-03-25T06:35:46;99918.50;;;6.68;100.00
30636;BME280;17400;52.392;9.750;2024-03-25T06:38:12;99918.50;;;6.68;100.00
30636;BME280;17400;52.392;9.750;2024-03-25T06:40:38;99918.97;;;6.72;100.00
30636;BME280;17400;52.392;9.750;2024-03-25T06:43:07;99930.13;;;6.69;100.00
30636;BME280;17400;52.392;9.750;2024-03-25T06:45:34;99928.91;;;6.71;100.00
30636;BME280;17400;52.392;9.750;2024-03-25T06:48:00;99940.94;;;6.75;100.00
30636;BME280;17400;52.392;9.750;2024-03-25T06:50:26;99933.50;;;6.77;100.00
30636;BME280;17400;52.392;9.750;2024-03-25T06:52:52;99936.19;;;6.77;100.00
30636;BME280;17400;52.392;9.750;2024-03-25T06:55:18;99944.34;;;6.84;100.00
30636;BME280;17400;52.392;9.750;2024-03-25T06:57:45;99952.28;;;6.92;100.00
30636;BME280;17400;52.392;9.750;2024-03-25T07:00:13;99945.31;;;6.98;100.00
30636;BME280;17400;52.392;9.750;2024-03-25T07:02:39;99949.88;;;6.97;100.00
30636;BME280;17400;52.392;9.750;2024-03-25T07:05:07;99956.06;;;6.98;100.00
30636;BME280;17400;52.392;9.750;2024-03-25T07:07:33;99950.69;;;6.98;100.00
30636;BME280;17400;52.392;9.750;2024-03-25T07:10:00;99953.78;;;6.95;100.00
30636;BME280;17400;52.392;9.750;2024-03-25T07:12:26;99957.47;;;6.94;100.00
30636;BME280;17400;52.392;9.750;2024-03-25T07:14:52;99959.41;;;7.00;100.00
30636;BME280;17400;52.392;9.750;2024-03-25T07:17:20;99949.78;;;7.12;100.00
30636;BME280;17400;52.392;9.750;2024-03-25T07:19:46;99956.75;;;7.28;100.00
30636;BME280;17400;52.392;9.750;2024-03-25T07:22:12;99962.25;;;7.42;100.00
30636;BME280;17400;52.392;9.750;2024-03-25T07:24:39;99952.94;;;7.44;100.00
30636;BME280;17400;52.392;9.750;2024-03-25T07:27:05;99960.22;;;7.44;100.00
30636;BME280;17400;52.392;9.750;2024-03-25T07:29:31;99963.53;;;7.46;100.00
30636;BME280;17400;52.392;9.750;2024-03-25T07:31:58;99966.00;;;7.47;100.00
30636;BME280;17400;52.392;9.750;2024-03-25T07:34:28;99967.47;;;7.50;100.00
30636;BME280;17400;52.392;9.750;2024-03-25T07:36:55;99968.59;;;7.56;100.00
30636;BME280;17400;52.392;9.750;2024-03-25T07:39:21;99966.72;;;7.56;100.00
30636;BME280;17400;52.392;9.750;2024-03-25T07:41:47;99972.16;;;7.63;100.00
30636;BME280;17400;52.392;9.750;2024-03-25T07:44:13;99964.09;;;7.70;100.00
30636;BME280;17400;52.392;9.750;2024-03-25T07:46:39;99989.47;;;7.75;100.00
30636;BME280;17400;52.392;9.750;2024-03-25T07:49:05;99979.28;;;7.77;100.00
30636;BME280;17400;52.392;9.750;2024-03-25T07:51:34;99982.47;;;7.88;100.00
30636;BME280;17400;52.392;9.750;2024-03-25T07:54:01;99991.00;;;7.91;100.00
30636;BME280;17400;52.392;9.750;2024-03-25T07:56:27;99990.72;;;7.79;100.00
30636;BME280;17400;52.392;9.750;2024-03-25T07:58:54;100001.00;;;7.69;100.00
30636;BME280;17400;52.392;9.750;2024-03-25T08:01:20;99997.28;;;7.70;100.00
30636;BME280;17400;52.392;9.750;2024-03-25T08:03:46;99996.94;;;7.80;100.00
30636;BME280;17400;52.392;9.750;2024-03-25T08:06:12;100001.88;;;7.76;100.00
30636;BME280;17400;52.392;9.750;2024-03-25T08:08:40;99995.31;;;7.86;100.00
30636;BME280;17400;52.392;9.750;2024-03-25T08:11:06;99996.66;;;7.96;100.00
30636;BME280;17400;52.392;9.750;2024-03-25T08:13:32;99998.09;;;7.99;100.00
30636;BME280;17400;52.392;9.750;2024-03-25T08:15:58;100001.88;;;8.05;100.00
30636;BME280;17400;52.392;9.750;2024-03-25T08:18:25;100000.44;;;8.09;100.00
30636;BME280;17400;52.392;9.750;2024-03-25T08:20:52;100004.13;;;8.01;100.00
30636;BME280;17400;52.392;9.750;2024-03-25T08:23:18;100004.97;;;8.08;100.00
30636;BME280;17400;52.392;9.750;2024-03-25T08:25:46;100004.38;;;8.06;100.00
30636;BME280;17400;52.392;9.750;2024-03-25T08:28:14;100000.19;;;8.04;100.00
30636;BME280;17400;52.392;9.750;2024-03-25T08:30:40;100004.59;;;8.11;100.00
30636;BME280;17400;52.392;9.750;2024-03-25T08:33:06;100011.03;;;8.10;100.00
30636;BME280;17400;52.392;9.750;2024-03-25T08:35:32;100002.97;;;8.17;100.00
30636;BME280;17400;52.392;9.750;2024-03-25T08:37:58;100002.22;;;8.30;100.00
30636;BME280;17400;52.392;9.750;2024-03-25T08:40:25;100002.28;;;8.43;100.00
30636;BME280;17400;52.392;9.750;2024-03-25T08:42:52;100003.47;;;8.34;100.00
30636;BME280;17400;52.392;9.750;2024-03-25T08:45:18;100011.78;;;8.32;100.00
30636;BME280;17400;52.392;9.750;2024-03-25T08:47:44;100003.09;;;8.44;100.00
30636;BME280;17400;52.392;9.750;2024-03-25T08:50:11;100013.03;;;8.37;100.00
30636;BME280;17400;52.392;9.750;2024-03-25T08:52:37;100006.91;;;8.49;100.00
30636;BME280;17400;52.392;9.750;2024-03-25T08:55:04;100009.44;;;8.58;100.00
30636;BME280;17400;52.392;9.750;2024-03-25T08:57:30;100008.56;;;8.57;100.00
30636;BME280;17400;52.392;9.750;2024-03-25T08:59:58;100005.69;;;8.52;100.00
30636;BME280;17400;52.392;9.750;2024-03-25T09:02:24;100013.94;;;8.50;100.00
30636;BME280;17400;52.392;9.750;2024-03-25T09:04:51;100010.47;;;8.57;100.00
30636;BME280;17400;52.392;9.750;2024-03-25T09:07:17;100018.59;;;8.70;100.00
30636;BME280;17400;52.392;9.750;2024-03-25T09:09:43;100012.97;;;8.65;100.00
30636;BME280;17400;52.392;9.750;2024-03-25T09:12:29;100010.69;;;8.62;100.00
30636;BME280;17400;52.392;9.750;2024-03-25T09:14:55;100012.94;;;8.58;100.00
30636;BME280;17400;52.392;9.750;2024-03-25T09:17:23;100014.44;;;8.67;100.00
30636;BME280;17400;52.392;9.750;2024-03-25T09:19:51;100016.75;;;8.71;100.00
30636;BME280;17400;52.392;9.750;2024-03-25T09:22:18;100016.97;;;8.76;100.00
30636;BME280;17400;52.392;9.750;2024-03-25T09:24:44;100018.00;;;8.75;100.00
30636;BME280;17400;52.392;9.750;2024-03-25T09:27:10;100025.06;;;8.76;100.00
30636;BME280;17400;52.392;9.750;2024-03-25T09:29:36;100025.69;;;8.78;99.80
30636;BME280;17400;52.392;9.750;2024-03-25T09:32:03;100026.94;;;8.75;99.59
30636;BME280;17400;52.392;9.750;2024-03-25T09:34:32;100025.47;;;8.79;98.77
30636;BME280;17400;52.392;9.750;2024-03-25T09:36:58;100028.84;;;8.88;99.08
30636;BME280;17400;52.392;9.750;2024-03-25T09:39:25;100025.75;;;8.98;95.43
30636;BME280;17400;52.392;9.750;2024-03-25T09:41:55;100018.28;;;9.00;94.53
30636;BME280;17400;52.392;9.750;2024-03-25T09:44:22;100022.44;;;8.96;94.34
30636;BME280;17400;52.392;9.750;2024-03-25T09:46:50;100030.31;;;8.91;90.85
30636;BME280;17400;52.392;9.750;2024-03-25T09:49:16;100032.00;;;8.98;88.68
30636;BME280;17400;52.392;9.750;2024-03-25T09:51:44;100025.75;;;9.05;88.06
30636;BME280;17400;52.392;9.750;2024-03-25T09:54:11;100027.44;;;9.12;88.59
30636;BME280;17400;52.392;9.750;2024-03-25T09:56:38;100030.75;;;8.94;78.64
30636;BME280;17400;52.392;9.750;2024-03-25T09:59:05;100039.03;;;8.93;82.61
30636;BME280;17400;52.392;9.750;2024-03-25T10:01:32;100037.56;;;8.90;83.88
30636;BME280;17400;52.392;9.750;2024-03-25T10:03:58;100040.25;;;8.90;84.30
30636;BME280;17400;52.392;9.750;2024-03-25T10:06:25;100036.72;;;8.90;84.92
30636;BME280;17400;52.392;9.750;2024-03-25T10:08:54;100032.19;;;8.97;84.52
30636;BME280;17400;52.392;9.750;2024-03-25T10:11:20;100038.22;;;8.99;83.03
30636;BME280;17400;52.392;9.750;2024-03-25T10:13:46;100036.38;;;9.06;81.47
30636;BME280;17400;52.392;9.750;2024-03-25T10:16:13;100027.44;;;9.12;79.85
30636;BME280;17400;52.392;9.750;2024-03-25T10:18:39;100038.06;;;9.21;79.40
30636;BME280;17400;52.392;9.750;2024-03-25T10:21:09;100039.50;;;9.10;76.15
30636;BME280;17400;52.392;9.750;2024-03-25T10:23:36;100032.22;;;9.04;75.87
30636;BME280;17400;52.392;9.750;2024-03-25T10:26:04;100038.88;;;9.08;77.93
30636;BME280;17400;52.392;9.750;2024-03-25T10:28:30;100037.41;;;9.05;76.88
30636;BME280;17400;52.392;9.750;2024-03-25T10:31:02;100035.09;;;8.95;75.35
30636;BME280;17400;52.392;9.750;2024-03-25T10:33:30;100022.44;;;8.96;77.18
30636;BME280;17400;52.392;9.750;2024-03-25T10:35:56;100032.22;;;9.04;78.53
30636;BME280;17400;52.392;9.750;2024-03-25T10:38:26;100026.22;;;9.22;80.54
30636;BME280;17400;52.392;9.750;2024-03-25T10:40:54;100030.38;;;9.24;77.79
30636;BME280;17400;52.392;9.750;2024-03-25T10:43:25;100025.41;;;9.48;77.81
30636;BME280;17400;52.392;9.750;2024-03-25T10:45:55;100016.28;;;9.62;77.04
30636;BME280;17400;52.392;9.750;2024-03-25T10:48:27;100026.88;;;9.64;73.77
30636;BME280;17400;52.392;9.750;2024-03-25T10:50:55;100020.03;;;9.61;71.80
30636;BME280;17400;52.392;9.750;2024-03-25T10:53:22;100019.19;;;9.67;70.76
30636;BME280;17400;52.392;9.750;2024-03-25T10:55:54;100019.59;;;9.84;71.18
30636;BME280;17400;52.392;9.750;2024-03-25T10:58:22;100019.19;;;9.81;70.47
30636;BME280;17400;52.392;9.750;2024-03-25T11:00:51;100015.03;;;9.85;71.13
30636;BME280;17400;52.392;9.750;2024-03-25T11:03:18;100025.41;;;9.88;70.82
30636;BME280;17400;52.392;9.750;2024-03-25T11:05:44;100020.84;;;9.89;73.27
30636;BME280;17400;52.392;9.750;2024-03-25T11:08:11;100008.34;;;10.01;76.06
30636;BME280;17400;52.392;9.750;2024-03-25T11:10:40;100016.22;;;10.09;72.98
30636;BME280;17400;52.392;9.750;2024-03-25T11:13:10;100010.63;;;10.11;71.23
30636;BME280;17400;52.392;9.750;2024-03-25T11:15:40;100022.06;;;10.06;69.94
30636;BME280;17400;52.392;9.750;2024-03-25T11:18:10;100008.34;;;10.01;71.73
30636;BME280;17400;52.392;9.750;2024-03-25T11:20:37;100004.59;;;10.02;71.29
30636;BME280;17400;52.392;9.750;2024-03-25T11:23:08;100004.38;;;10.04;72.32
30636;BME280;17400;52.392;9.750;2024-03-25T11:25:36;100006.69;;;10.13;70.13
30636;BME280;17400;52.392;9.750;2024-03-25T11:28:02;99999.13;;;10.29;69.41
30636;BME280;17400;52.392;9.750;2024-03-25T11:30:29;100006.41;;;10.28;71.28
30636;BME280;17400;52.392;9.750;2024-03-25T11:32:58;99994.63;;;9.96;69.99
30636;BME280;17400;52.392;9.750;2024-03-25T11:35:24;99995.91;;;9.80;71.23
30636;BME280;17400;52.392;9.750;2024-03-25T11:37:50;99997.34;;;9.82;73.94
30636;BME280;17400;52.392;9.750;2024-03-25T11:40:17;99987.56;;;9.81;74.48
30636;BME280;17400;52.392;9.750;2024-03-25T11:42:44;99991.34;;;9.80;73.53
30636;BME280;17400;52.392;9.750;2024-03-25T11:45:14;99982.38;;;9.87;73.20
30636;BME280;17400;52.392;9.750;2024-03-25T11:47:42;99976.56;;;9.90;71.97
30636;BME280;17400;52.392;9.750;2024-03-25T11:50:12;99982.38;;;9.87;70.96
30636;BME280;17400;52.392;9.750;2024-03-25T11:52:38;99979.06;;;9.84;71.43
30636;BME280;17400;52.392;9.750;2024-03-25T11:55:06;99974.69;;;9.90;68.86
30636;BME280;17400;52.392;9.750;2024-03-25T11:57:35;99978.63;;;9.94;67.17
30636;BME280;17400;52.392;9.750;2024-03-25T12:00:01;99975.50;;;9.91;69.15
30636;BME280;17400;52.392;9.750;2024-03-25T12:02:29;99972.78;;;9.91;68.35
30636;BME280;17400;52.392;9.750;2024-03-25T12:04:55;99977.59;;;9.89;66.24
30636;BME280;17400;52.392;9.750;2024-03-25T12:07:22;99972.16;;;9.95;66.38
30636;BME280;17400;52.392;9.750;2024-03-25T12:09:48;99968.38;;;10.16;65.71
30636;BME280;17400;52.392;9.750;2024-03-25T12:12:33;99972.91;;;10.43;60.21
30636;BME280;17400;52.392;9.750;2024-03-25T12:15:00;99969.16;;;10.44;60.50
30636;BME280;17400;52.392;9.750;2024-03-25T12:17:27;99975.41;;;10.31;56.50
30636;BME280;17400;52.392;9.750;2024-03-25T12:19:59;99978.34;;;10.23;56.11
30636;BME280;17400;52.392;9.750;2024-03-25T12:22:27;99979.38;;;10.22;55.65
30636;BME280;17400;52.392;9.750;2024-03-25T12:24:57;99964.63;;;10.17;56.09
30636;BME280;17400;52.392;9.750;2024-03-25T12:27:24;99976.06;;;10.20;56.39
30636;BME280;17400;52.392;9.750;2024-03-25T12:29:58;99972.53;;;10.19;55.38
30636;BME280;17400;52.392;9.750;2024-03-25T12:32:37;99973.53;;;10.25;54.22
30636;BME280;17400;52.392;9.750;2024-03-25T12:35:07;99969.78;;;10.39;55.01
30636;BME280;17400;52.392;9.750;2024-03-25T12:37:36;99961.16;;;10.62;55.61
30636;BME280;17400;52.392;9.750;2024-03-25T12:40:04;99962.84;;;10.89;55.87
30636;BME280;17400;52.392;9.750;2024-03-25T12:42:30;99958.69;;;10.93;53.47
30636;BME280;17400;52.392;9.750;2024-03-25T12:44:57;99962.91;;;10.82;52.88
30636;BME280;17400;52.392;9.750;2024-03-25T12:47:23;99961.94;;;10.70;54.76
30636;BME280;17400;52.392;9.750;2024-03-25T12:49:49;99959.91;;;10.58;54.96
30636;BME280;17400;52.392;9.750;2024-03-25T12:52:15;99958.31;;;10.50;56.71
30636;BME280;17400;52.392;9.750;2024-03-25T12:54:43;99956.25;;;10.39;55.03
30636;BME280;17400;52.392;9.750;2024-03-25T12:57:09;99951.63;;;10.46;55.07
30636;BME280;17400;52.392;9.750;2024-03-25T12:59:35;99952.25;;;10.48;56.30